sensor_id;sensor_type;location;lat;lon;timestamp;pressure;altitude;pressure_sealevel;temperature;humidity
78825;BME280;68176;45.554;10.220;2023-08-06T04:29:32;98720.09;;;24.98;49.39
78825;BME280;68176;45.554;10.220;2023-08-06T04:31:57;98733.22;;;25.00;49.57
78825;BME280;68176;45.554;10.220;2023-08-06T04:34:26;98726.97;;;24.89;49.08
78825;BME280;68176;45.554;10.220;2023-08-06T04:36:56;98723.47;;;24.88;49.57
78825;BME280;68176;45.554;10.220;2023-08-06T05:34:36;98763.31;;;24.80;49.64
78825;BME280;68176;45.554;10.220;2023-08-06T05:58:48;98766.56;;;24.82;49.68
78825;BME280;68176;45.554;10.220;2023-08-06T06:01:15;98755.84;;;24.82;49.20
78825;BME280;68176;45.554;10.220;2023-08-06T06:03:41;98765.03;;;24.86;49.44
78825;BME280;68176;45.554;10.220;2023-08-06T06:06:28;98763.16;;;24.86;49.24
78825;BME280;68176;45.554;10.220;2023-08-06T06:19:35;98763.50;;;24.73;49.49
78825;BME280;68176;45.554;10.220;2023-08-06T06:22:01;98788.03;;;24.82;49.38
78825;BME280;68176;45.554;10.220;2023-08-06T06:24:29;98775.03;;;24.74;49.77
78825;BME280;68176;45.554;10.220;2023-08-06T06:26:59;98776.13;;;24.78;49.31
78825;BME280;68176;45.554;10.220;2023-08-06T06:29:29;98784.75;;;24.80;49.37
78825;BME280;68176;45.554;10.220;2023-08-06T06:31:59;98779.28;;;24.70;49.60
78825;BME280;68176;45.554;10.220;2023-08-06T06:57:42;98783.41;;;22.99;56.58
78825;BME280;68176;45.554;10.220;2023-08-06T07:00:09;98777.34;;;23.32;55.65
78825;BME280;68176;45.554;10.220;2023-08-06T07:02:36;98783.47;;;23.61;54.66
78825;BME280;68176;45.554;10.220;2023-08-06T07:05:07;98795.19;;;23.88;53.82
78825;BME280;68176;45.554;10.220;2023-08-06T07:07:36;98785.38;;;23.94;53.53
78825;BME280;68176;45.554;10.220;2023-08-06T07:10:10;98804.72;;;24.12;52.88
78825;BME280;68176;45.554;10.220;2023-08-06T07:26:53;98759.88;;;24.24;51.85
78825;BME280;68176;45.554;10.220;2023-08-06T07:29:34;98749.97;;;24.25;51.40
78825;BME280;68176;45.554;10.220;2023-08-06T07:32:12;98753.03;;;24.33;51.32
78825;BME280;68176;45.554;10.220;2023-08-06T07:45:54;98758.59;;;24.10;50.67
78825;BME280;68176;45.554;10.220;2023-08-06T07:48:25;98759.31;;;24.06;51.18
78825;BME280;68176;45.554;10.220;2023-08-06T07:50:52;98752.44;;;23.60;51.44
78825;BME280;68176;45.554;10.220;2023-08-06T07:53:22;98752.28;;;23.66;52.30
78825;BME280;68176;45.554;10.220;2023-08-06T07:55:51;98774.81;;;23.54;52.49
78825;BME280;68176;45.554;10.220;2023-08-06T07:59:01;98754.53;;;23.58;53.36
78825;BME280;68176;45.554;10.220;2023-08-06T08:01:26;98763.03;;;23.55;54.24
78825;BME280;68176;45.554;10.220;2023-08-06T08:03:52;98758.28;;;23.28;53.39
78825;BME280;68176;45.554;10.220;2023-08-06T08:06:28;98766.19;;;23.23;53.49
78825;BME280;68176;45.554;10.220;2023-08-06T08:08:57;98761.13;;;23.38;52.37
78825;BME280;68176;45.554;10.220;2023-08-06T08:11:23;98766.78;;;23.25;53.00
78825;BME280;68176;45.554;10.220;2023-08-06T08:13:50;98754.94;;;23.21;54.26
78825;BME280;68176;45.554;10.220;2023-08-06T08:16:23;98749.50;;;22.88;55.68
78825;BME280;68176;45.554;10.220;2023-08-06T08:19:10;98763.44;;;23.18;54.09
78825;BME280;68176;45.554;10.220;2023-08-06T08:21:35;98773.13;;;23.36;54.05
78825;BME280;68176;45.554;10.220;2023-08-06T08:39:35;98762.72;;;23.68;53.89
78825;BME280;68176;45.554;10.220;2023-08-06T08:45:23;98749.50;;;23.33;52.35
78825;BME280;68176;45.554;10.220;2023-08-06T08:53:02;98760.63;;;23.70;51.72
78825;BME280;68176;45.554;10.220;2023-08-06T08:55:48;98766.78;;;23.54;52.64
78825;BME280;68176;45.554;10.220;2023-08-06T08:58:42;98782.94;;;23.59;52.65
78825;BME280;68176;45.554;10.220;2023-08-06T09:04:29;98786.28;;;23.37;53.15
78825;BME280;68176;45.554;10.220;2023-08-06T09:07:17;98790.88;;;23.54;51.29
78825;BME280;68176;45.554;10.220;2023-08-06T09:12:43;98781.16;;;23.81;51.71
78825;BME280;68176;45.554;10.220;2023-08-06T09:15:10;98778.41;;;23.76;51.39
78825;BME280;68176;45.554;10.220;2023-08-06T09:17:36;98758.34;;;24.12;50.61
78825;BME280;68176;45.554;10.220;2023-08-06T09:29:35;98771.81;;;24.00;49.51
78825;BME280;68176;45.554;10.220;2023-08-06T09:32:13;98767.59;;;24.04;47.97
78825;BME280;68176;45.554;10.220;2023-08-06T09:34:42;98763.13;;;24.10;48.61
78825;BME280;68176;45.554;10.220;2023-08-06T09:37:09;98766.22;;;24.18;49.13
78825;BME280;68176;45.554;10.220;2023-08-06T09:39:36;98764.06;;;24.37;49.61
78825;BME280;68176;45.554;10.220;2023-08-06T09:42:08;98774.91;;;24.64;48.85
78825;BME280;68176;45.554;10.220;2023-08-06T09:44:35;98765.28;;;24.68;48.73
78825;BME280;68176;45.554;10.220;2023-08-06T09:47:05;98766.84;;;24.42;48.94
78825;BME280;68176;45.554;10.220;2023-08-06T09:52:06;98762.91;;;24.50;48.31
78825;BME280;68176;45.554;10.220;2023-08-06T09:54:37;98766.09;;;24.68;49.19
78825;BME280;68176;45.554;10.220;2023-08-06T09:57:06;98769.47;;;24.80;48.80
78825;BME280;68176;45.554;10.220;2023-08-06T09:59:38;98776.97;;;25.00;47.39
78825;BME280;68176;45.554;10.220;2023-08-06T10:02:13;98783.81;;;25.13;47.49
78825;BME280;68176;45.554;10.220;2023-08-06T10:04:39;98764.78;;;25.14;47.65
78825;BME280;68176;45.554;10.220;2023-08-06T10:07:05;98775.19;;;25.32;47.27
78825;BME280;68176;45.554;10.220;2023-08-06T10:10:00;98761.13;;;25.25;43.04
78825;BME280;68176;45.554;10.220;2023-08-06T10:12:28;98781.56;;;25.53;44.17
78825;BME280;68176;45.554;10.220;2023-08-06T10:14:55;98772.22;;;25.56;42.94
78825;BME280;68176;45.554;10.220;2023-08-06T10:17:23;98778.69;;;25.60;42.50
78825;BME280;68176;45.554;10.220;2023-08-06T10:19:50;98768.53;;;25.67;40.72
78825;BME280;68176;45.554;10.220;2023-08-06T10:22:20;98760.25;;;25.68;40.24
78825;BME280;68176;45.554;10.220;2023-08-06T10:24:57;98770.41;;;25.98;37.18
78825;BME280;68176;45.554;10.220;2023-08-06T10:27:33;98774.31;;;25.80;37.08
78825;BME280;68176;45.554;10.220;2023-08-06T10:30:29;98771.97;;;25.94;34.88
78825;BME280;68176;45.554;10.220;2023-08-06T10:35:41;98763.66;;;26.27;35.30
78825;BME280;68176;45.554;10.220;2023-08-06T10:38:20;98746.19;;;26.30;35.82
78825;BME280;68176;45.554;10.220;2023-08-06T10:43:28;98751.84;;;26.33;35.89
78825;BME280;68176;45.554;10.220;2023-08-06T10:46:02;98750.88;;;26.49;36.27
78825;BME280;68176;45.554;10.220;2023-08-06T10:48:41;98754.97;;;26.67;34.64
78825;BME280;68176;45.554;10.220;2023-08-06T10:53:42;98752.22;;;26.47;34.77
78825;BME280;68176;45.554;10.220;2023-08-06T10:56:19;98730.53;;;26.74;32.27
78825;BME280;68176;45.554;10.220;2023-08-06T10:58:44;98748.13;;;27.01;33.40
78825;BME280;68176;45.554;10.220;2023-08-06T11:01:10;98736.72;;;26.74;34.99
78825;BME280;68176;45.554;10.220;2023-08-06T11:03:39;98744.63;;;26.96;35.06
78825;BME280;68176;45.554;10.220;2023-08-06T11:06:09;98718.81;;;27.05;32.38
78825;BME280;68176;45.554;10.220;2023-08-06T11:08:40;98733.91;;;27.26;32.11
78825;BME280;68176;45.554;10.220;2023-08-06T11:11:13;98720.69;;;27.04;32.23
78825;BME280;68176;45.554;10.220;2023-08-06T11:13:40;98722.34;;;27.16;27.85
78825;BME280;68176;45.554;10.220;2023-08-06T11:16:12;98715.09;;;27.31;27.14
78825;BME280;68176;45.554;10.220;2023-08-06T11:18:40;98715.31;;;27.15;26.03
78825;BME280;68176;45.554;10.220;2023-08-06T11:21:09;98717.81;;;27.51;25.82
78825;BME280;68176;45.554;10.220;2023-08-06T11:23:39;98718.91;;;27.50;23.38
78825;BME280;68176;45.554;10.220;2023-08-06T11:26:11;98692.50;;;27.58;25.24
78825;BME280;68176;45.554;10.220;2023-08-06T11:28:41;98713.50;;;27.50;23.72
78825;BME280;68176;45.554;10.220;2023-08-06T11:31:18;98695.44;;;27.81;24.52
78825;BME280;68176;45.554;10.220;2023-08-06T11:33:51;98704.91;;;27.64;27.13
78825;BME280;68176;45.554;10.220;2023-08-06T11:36:33;98696.25;;;27.62;27.39
78825;BME280;68176;45.554;10.220;2023-08-06T11:39:17;98706.19;;;27.86;25.22
78825;BME280;68176;45.554;10.220;2023-08-06T11:41:45;98707.00;;;27.77;23.07
78825;BME280;68176;45.554;10.220;2023-08-06T11:44:11;98709.19;;;27.85;25.75
78825;BME280;68176;45.554;10.220;2023-08-06T11:46:55;98695.19;;;27.83;24.63
78825;BME280;68176;45.554;10.220;2023-08-06T11:54:39;98683.81;;;27.96;23.08
78825;BME280;68176;45.554;10.220;2023-08-06T11:57:08;98691.38;;;28.14;22.26
78825;BME280;68176;45.554;10.220;2023-08-06T11:59:34;98704.59;;;28.05;23.80
78825;BME280;68176;45.554;10.220;2023-08-06T12:02:11;98706.97;;;28.02;22.89
78825;BME280;68176;45.554;10.220;2023-08-06T12:05:09;98707.56;;;28.14;21.51
78825;BME280;68176;45.554;10.220;2023-08-06T12:07:48;98700.53;;;27.98;22.52
78825;BME280;68176;45.554;10.220;2023-08-06T12:10:17;98675.72;;;27.96;22.87
78825;BME280;68176;45.554;10.220;2023-08-06T12:12:43;98685.97;;;28.14;23.06
78825;BME280;68176;45.554;10.220;2023-08-06T12:15:10;98675.19;;;28.14;23.32
78825;BME280;68176;45.554;10.220;2023-08-06T12:17:40;98693.47;;;28.32;22.86
78825;BME280;68176;45.554;10.220;2023-08-06T12:20:10;98684.88;;;28.20;22.46
78825;BME280;68176;45.554;10.220;2023-08-06T12:22:40;98680.75;;;28.38;22.41
78825;BME280;68176;45.554;10.220;2023-08-06T12:25:12;98684.47;;;28.57;23.38
78825;BME280;68176;45.554;10.220;2023-08-06T12:27:41;98700.94;;;28.50;24.05
78825;BME280;68176;45.554;10.220;2023-08-06T12:30:11;98693.38;;;28.52;21.46
78825;BME280;68176;45.554;10.220;2023-08-06T12:32:40;98685.25;;;28.68;20.78
78825;BME280;68176;45.554;10.220;2023-08-06T12:35:10;98698.13;;;28.86;22.70
78825;BME280;68176;45.554;10.220;2023-08-06T12:37:40;98692.72;;;28.86;22.09
78825;BME280;68176;45.554;10.220;2023-08-06T12:43:17;98672.44;;;28.88;23.11
78825;BME280;68176;45.554;10.220;2023-08-06T12:45:43;98679.56;;;29.18;21.37
78825;BME280;68176;45.554;10.220;2023-08-06T12:48:08;98692.72;;;29.30;20.63
78825;BME280;68176;45.554;10.220;2023-08-06T12:50:39;98664.94;;;29.19;20.85
78825;BME280;68176;45.554;10.220;2023-08-06T12:53:34;98680.97;;;29.44;21.57
78825;BME280;68176;45.554;10.220;2023-08-06T12:56:00;98674.16;;;29.52;20.28
78825;BME280;68176;45.554;10.220;2023-08-06T12:58:28;98670.09;;;29.54;22.57
78825;BME280;68176;45.554;10.220;2023-08-06T13:00:58;98668.03;;;29.75;21.52
78825;BME280;68176;45.554;10.220;2023-08-06T13:03:28;98690.38;;;29.86;20.12
78825;BME280;68176;45.554;10.220;2023-08-06T13:06:01;98677.66;;;29.86;20.02
78825;BME280;68176;45.554;10.220;2023-08-06T13:08:28;98679.94;;;30.03;19.98
78825;BME280;68176;45.554;10.220;2023-08-06T13:10:58;98676.81;;;30.14;20.15
78825;BME280;68176;45.554;10.220;2023-08-06T13:13:28;98683.88;;;30.39;20.27
78825;BME280;68176;45.554;10.220;2023-08-06T13:16:05;98675.69;;;30.44;20.47
78825;BME280;68176;45.554;10.220;2023-08-06T13:18:30;98687.56;;;29.96;18.37
78825;BME280;68176;45.554;10.220;2023-08-06T13:20:58;98673.38;;;30.09;18.73
78825;BME280;68176;45.554;10.220;2023-08-06T13:23:34;98681.19;;;30.34;19.54
78825;BME280;68176;45.554;10.220;2023-08-06T13:26:09;98675.28;;;30.75;20.02
78825;BME280;68176;45.554;10.220;2023-08-06T13:28:35;98682.38;;;30.89;21.74
78825;BME280;68176;45.554;10.220;2023-08-06T13:31:03;98681.47;;;30.99;20.82
78825;BME280;68176;45.554;10.220;2023-08-06T13:33:33;98685.72;;;31.05;19.40
78825;BME280;68176;45.554;10.220;2023-08-06T13:36:05;98681.19;;;31.00;20.12
78825;BME280;68176;45.554;10.220;2023-08-06T13:38:33;98671.78;;;30.93;18.17
78825;BME280;68176;45.554;10.220;2023-08-06T13:41:03;98677.53;;;31.10;19.00
78825;BME280;68176;45.554;10.220;2023-08-06T13:43:34;98672.53;;;31.17;18.03
78825;BME280;68176;45.554;10.220;2023-08-06T13:46:03;98681.69;;;31.21;18.85
78825;BME280;68176;45.554;10.220;2023-08-06T13:48:33;98668.00;;;31.12;17.09
78825;BME280;68176;45.554;10.220;2023-08-06T13:51:04;98689.53;;;31.04;17.67
78825;BME280;68176;45.554;10.220;2023-08-06T13:53:34;98662.22;;;31.19;18.58
78825;BME280;68176;45.554;10.220;2023-08-06T13:56:05;98682.44;;;31.59;18.86
78825;BME280;68176;45.554;10.220;2023-08-06T13:58:33;98672.84;;;31.48;17.83
78825;BME280;68176;45.554;10.220;2023-08-06T14:01:04;98667.59;;;31.56;18.35
78825;BME280;68176;45.554;10.220;2023-08-06T14:03:40;98670.72;;;31.63;17.62
78825;BME280;68176;45.554;10.220;2023-08-06T14:06:05;98686.88;;;31.68;17.96
78825;BME280;68176;45.554;10.220;2023-08-06T14:08:34;98668.22;;;31.81;17.78
78825;BME280;68176;45.554;10.220;2023-08-06T14:11:05;98678.66;;;32.19;17.96
78825;BME280;68176;45.554;10.220;2023-08-06T14:13:34;98669.91;;;32.63;18.57
78825;BME280;68176;45.554;10.220;2023-08-06T14:16:41;98671.63;;;32.46;18.94
78825;BME280;68176;45.554;10.220;2023-08-06T14:19:06;98684.91;;;32.61;18.10
78825;BME280;68176;45.554;10.220;2023-08-06T14:21:32;98665.94;;;32.83;18.57
78825;BME280;68176;45.554;10.220;2023-08-06T14:24:07;98665.66;;;33.07;17.81
78825;BME280;68176;45.554;10.220;2023-08-06T14:26:32;98665.72;;;32.93;18.00
78825;BME280;68176;45.554;10.220;2023-08-06T14:29:10;98682.38;;;33.00;17.60
78825;BME280;68176;45.554;10.220;2023-08-06T14:31:39;98679.44;;;32.74;16.96
78825;BME280;68176;45.554;10.220;2023-08-06T14:34:07;98681.81;;;31.94;15.77
78825;BME280;68176;45.554;10.220;2023-08-06T14:36:32;98668.31;;;32.08;16.54
78825;BME280;68176;45.554;10.220;2023-08-06T14:39:02;98688.63;;;33.14;17.40
78825;BME280;68176;45.554;10.220;2023-08-06T14:41:35;98686.06;;;32.68;16.21
78825;BME280;68176;45.554;10.220;2023-08-06T14:44:05;98669.47;;;33.19;16.63
78825;BME280;68176;45.554;10.220;2023-08-06T14:46:32;98688.16;;;33.35;17.17
78825;BME280;68176;45.554;10.220;2023-08-06T14:49:02;98678.03;;;33.57;17.31
78825;BME280;68176;45.554;10.220;2023-08-06T14:51:35;98691.72;;;34.19;17.76
78825;BME280;68176;45.554;10.220;2023-08-06T14:54:02;98687.56;;;33.91;17.04
78825;BME280;68176;45.554;10.220;2023-08-06T14:56:35;98672.03;;;33.91;17.33
78825;BME280;68176;45.554;10.220;2023-08-06T14:59:08;98691.47;;;34.46;16.99
78825;BME280;68176;45.554;10.220;2023-08-06T15:01:34;98699.66;;;34.07;16.02
78825;BME280;68176;45.554;10.220;2023-08-06T15:04:31;98699.66;;;34.55;16.96
78825;BME280;68176;45.554;10.220;2023-08-06T15:06:56;98703.72;;;33.96;15.21
78825;BME280;68176;45.554;10.220;2023-08-06T15:09:24;98711.66;;;34.45;16.84
78825;BME280;68176;45.554;10.220;2023-08-06T15:11:53;98693.53;;;34.89;17.23
78825;BME280;68176;45.554;10.220;2023-08-06T15:14:26;98714.97;;;34.73;16.52
78825;BME280;68176;45.554;10.220;2023-08-06T15:56:02;98727.09;;;32.26;23.45
78825;BME280;68176;45.554;10.220;2023-08-06T16:53:51;98777.09;;;31.55;26.31
78825;BME280;68176;45.554;10.220;2023-08-06T17:22:59;98780.41;;;30.91;28.30
78825;BME280;68176;45.554;10.220;2023-08-06T17:32:22;98809.97;;;30.64;29.02
78825;BME280;68176;45.554;10.220;2023-08-06T17:34:51;98793.16;;;30.43;29.58
78825;BME280;68176;45.554;10.220;2023-08-06T17:44:33;98810.69;;;30.17;29.98
78825;BME280;68176;45.554;10.220;2023-08-06T17:47:05;98799.44;;;30.05;30.78
78825;BME280;68176;45.554;10.220;2023-08-06T17:59:16;98824.75;;;29.85;31.25
78825;BME280;68176;45.554;10.220;2023-08-06T18:01:42;98819.63;;;29.79;31.33
78825;BME280;68176;45.554;10.220;2023-08-06T18:04:32;98820.47;;;29.74;31.32
78825;BME280;68176;45.554;10.220;2023-08-06T18:11:35;98825.19;;;29.58;31.74
78825;BME280;68176;45.554;10.220;2023-08-06T18:17:34;98838.25;;;29.46;31.82
78825;BME280;68176;45.554;10.220;2023-08-06T18:28:10;98879.84;;;29.45;32.51
78825;BME280;68176;45.554;10.220;2023-08-06T18:30:35;98861.53;;;29.37;32.23
78825;BME280;68176;45.554;10.220;2023-08-06T19:07:24;98926.16;;;29.03;33.79
78825;BME280;68176;45.554;10.220;2023-08-06T19:14:16;98942.63;;;28.97;34.15
78825;BME280;68176;45.554;10.220;2023-08-06T19:16:43;98924.31;;;28.79;34.06
78825;BME280;68176;45.554;10.220;2023-08-06T19:19:24;98954.03;;;28.84;34.35
78825;BME280;68176;45.554;10.220;2023-08-06T19:21:50;98941.34;;;28.79;33.95
78825;BME280;68176;45.554;10.220;2023-08-06T19:27:17;98956.47;;;28.70;34.13
78825;BME280;68176;45.554;10.220;2023-08-06T19:36:36;98965.06;;;28.57;34.53
78825;BME280;68176;45.554;10.220;2023-08-06T19:39:09;98987.47;;;28.63;34.47
78825;BME280;68176;45.554;10.220;2023-08-06T19:41:35;98988.00;;;28.54;34.85
78825;BME280;68176;45.554;10.220;2023-08-06T20:03:50;99020.34;;;28.34;35.44
78825;BME280;68176;45.554;10.220;2023-08-06T20:06:18;99024.41;;;28.37;35.46
78825;BME280;68176;45.554;10.220;2023-08-06T20:18:56;99029.50;;;28.23;35.60
78825;BME280;68176;45.554;10.220;2023-08-06T20:21:31;99024.09;;;28.13;35.82
78825;BME280;68176;45.554;10.220;2023-08-06T20:34:14;99058.00;;;28.04;36.18
78825;BME280;68176;45.554;10.220;2023-08-06T20:54:15;99101.91;;;27.94;36.42
78825;BME280;68176;45.554;10.220;2023-08-06T21:03:11;99101.03;;;27.84;36.77
78825;BME280;68176;45.554;10.220;2023-08-06T21:06:03;99137.78;;;28.00;36.89
78825;BME280;68176;45.554;10.220;2023-08-06T21:24:28;99156.88;;;27.88;36.77
78825;BME280;68176;45.554;10.220;2023-08-06T21:30:58;99180.03;;;27.84;36.93
78825;BME280;68176;45.554;10.220;2023-08-06T22:06:29;99225.44;;;27.66;37.61
78825;BME280;68176;45.554;10.220;2023-08-06T23:28:16;99305.06;;;27.03;38.73
